Historyczne dane pomiarowe

Dodano dane terminowe – wersja testowa.

Dane z okresu 1951-2019

Wersja bazy: 1.34 [2019-03-16, lista zmian], aktualizacja planowana na 2019-04-15

Dane meteo z obszaru Polski uzyskane na podstawie danych udostępnionych przez Instytut Meteorologii i Gospodarki Wodnej – Państwowy Instytut Badawczy.

 

Wybierz Datę:    

       

TemperaturaWilgotnośćWiatrCiśnienieOpadyŚniegCzas trwania zjawisk
 Stacja t tx tn tng RH VA  wxwx mslp ppp RRR   cm mm wxwxwxwxwxwxwx
1961-08-14 15.1 19.8 9.2--- 3.3 1.0---- 0.0------------
1961-08-13 14.8 18.0 13.3--- 4.3 4.7---- 0.0------------
1961-08-12 17.6 23.0 15.3--- 7.3 2.0---- 5.4------------
1961-08-11 19.3 23.6 17.1--- 8.0 2.3---- 5.7------------
1961-08-10 21.5 26.7 15.2--- 3.0 3.7---- 30.0------------
1961-08-09 21.2 28.3 13.9--- 5.3 2.0---- 0.0------------
1961-08-08 18.1 24.0 12.8--- 3.3 2.3---- 0.0------------
1961-08-07 20.1 24.4 18.1--- 6.0 2.3---- 0.8------------
1961-08-06 22.7 30.5 13.3--- 3.3 5.0---- 0.0------------
1961-08-05 17.8 22.6 13.9--- 4.3 4.3---- 0.0------------
1961-08-04 15.3 20.2 8.3--- 4.3 4.0---- 0.0------------
1961-08-03 16.1 22.0 14.3--- 5.7 4.3---- 0.9------------
1961-08-02 18.5 25.5 9.7--- 2.0 3.7---- 0.0------------
1961-08-01 13.5 15.6 11.9--- 7.3 7.7---- 8.6------------
1961-07-31 14.5 18.0 12.6--- 7.3 8.7---- 2.4------------
1961-07-30 13.6 14.9 12.1--- 8.0 4.7---- 14.4------------
1961-07-29 14.9 19.6 13.1--- 6.7 2.7---- 0.7------------
1961-07-28 16.5 20.4 14.3--- 7.7 4.3---- 15.0------------
1961-07-27 18.8 24.6 13.8--- 7.0 5.0---- 0.0------------
1961-07-26 15.8 20.2 11.8--- 7.7 4.3---- 0.0------------
1961-07-25 15.4 18.4 9.9--- 5.3 5.7---- 0.0------------
1961-07-24 14.9 18.8 10.2--- 6.7 4.3---- 0.0------------
1961-07-23 15.1 17.2 12.3--- 6.3 4.3---- 0.0------------
1961-07-22 15.7 21.0 13.7--- 7.3 4.7---- 5.5------------
1961-07-21 15.8 20.6 10.5--- 5.0 5.7---- 5.2------------
1961-07-20 16.6 23.4 9.6--- 2.7 0.7---- 0.0------------
1961-07-19 15.5 22.0 10.1--- 4.0 2.7---- 5.5------------
1961-07-18 13.9 18.2 10.7--- 7.0 4.3---- 0.6------------
1961-07-17 16.4 22.8 8.8--- 4.7 1.7---- 0.0------------
1961-07-16 14.3 17.0 10.2--- 5.3 3.0---- 5.4------------
1961-07-15 16.4 22.6 9.9--- 4.7 3.0---- 0.0------------
1961-07-14 15.4 24.6 14.3--- 6.0 5.3---- 0.0------------
1961-07-13 23.8 29.7 13.2--- 3.7 6.0---- 0.4------------
1961-07-12 18.8 25.3 11.9--- 4.3 2.7---- 2.5------------
1961-07-11 15.5 21.6 9.0--- 2.7 4.7---- 2.0------------
1961-07-10 14.1 19.6 10.3--- 6.0 5.7---- 1.2------------
1961-07-09 16.5 24.0 8.7--- 3.3 7.0---- 0.0------------
1961-07-08 15.6 21.6 9.4--- 2.3 2.3---- 0.0------------
1961-07-07 13.4 18.4 8.8--- 6.3 4.0---- 0.4------------
1961-07-06 12.0 17.8 7.3--- 4.3 5.3---- 0.5------------
1961-07-05 14.2 18.2 12.3--- 4.7 7.7---- 0.0------------
1961-07-04 19.3 24.8 17.1--- 7.0 5.7---- 0.2------------
1961-07-03 23.5 31.7 11.6--- 1.0 2.3---- 0.0------------
1961-07-02 22.7 29.7 10.8--- 0.0 2.3---- 0.0------------
1961-07-01 19.8 25.7 11.6--- 0.3 2.3---- 0.0------------
1961-06-30 19.5 25.1 10.1--- 0.0 4.3---- 0.0------------
1961-06-29 14.8 18.2 9.7--- 4.7 4.7---- 0.0------------
1961-06-28 15.1 20.8 13.3--- 5.7 6.7---- 5.8------------
1961-06-27 23.0 33.1 15.6--- 3.3 3.3---- 4.8------------
1961-06-26 22.5 28.5 15.1--- 0.7 1.7---- 0.0------------
1961-06-25 21.3 27.1 13.7--- 3.0 6.3---- 0.0------------
1961-06-24 17.2 22.6 11.9--- 3.3 6.7---- 0.0------------
1961-06-23 17.5 23.8 14.6--- 5.3 4.0---- 0.0------------
1961-06-22 16.5 22.6 6.9--- 3.3 3.0---- 13.9------------
1961-06-21 16.0 23.0 6.0--- 4.7 5.7---- 0.9------------
1961-06-20 15.3 20.0 9.6--- 1.3 6.0---- 0.0------------
1961-06-19 17.0 22.6 15.2--- 4.7 5.0---- 0.0------------
1961-06-18 20.0 26.3 14.8--- 4.0 6.7---- 0.0------------
1961-06-17 17.3 22.8 10.0--- 5.0 6.0---- 0.0------------
1961-06-16 12.8 16.4 11.8--- 6.3 6.7---- 0.0------------
325.5 ms

 

Źródłem pochodzenia danych jest Instytut Meteorologii i Gospodarki Wodnej – Państwowy Instytut Badawczy. Dane Instytutu Meteorologii i Gospodarki Wodnej – Państwowego Instytutu Badawczego zostały przetworzone.

Dane źródłowe można odnaleźć na stronie https://dane.imgw.pl